createdAt,value
2017-08-21T00:02:53.781Z,80.70
2017-08-21T00:07:55.453Z,79.60
2017-08-21T00:12:57.126Z,80.70
2017-08-21T00:17:58.699Z,80.70
2017-08-21T00:23:01.086Z,81.80
2017-08-21T00:28:02.742Z,81.20
2017-08-21T00:33:04.393Z,81.70
2017-08-21T00:38:06.888Z,80.90
2017-08-21T00:43:09.210Z,81.10
2017-08-21T00:48:10.865Z,81.10
2017-08-21T00:53:13.452Z,85.40
2017-08-21T00:58:15.050Z,84.00
2017-08-21T01:03:16.641Z,88.60
2017-08-21T01:08:18.371Z,85.50
2017-08-21T01:13:19.949Z,87.30
2017-08-21T01:18:22.886Z,87.80
2017-08-21T01:23:25.254Z,87.80
2017-08-21T01:28:27.462Z,89.00
2017-08-21T01:33:30.272Z,89.00
2017-08-21T01:38:31.895Z,87.10
2017-08-21T01:43:33.583Z,86.90
2017-08-21T01:48:35.217Z,89.40
2017-08-21T01:53:36.804Z,89.00
2017-08-21T01:58:38.936Z,87.80
2017-08-21T02:03:40.564Z,87.40
2017-08-21T02:08:42.141Z,89.10
2017-08-21T02:13:44.542Z,89.20
2017-08-21T02:18:46.214Z,88.10
2017-08-21T02:23:48.484Z,87.40
2017-08-21T02:28:50.993Z,87.70
2017-08-21T02:33:54.224Z,87.80
2017-08-21T02:39:11.634Z,87.10
2017-08-21T02:44:28.638Z,88.10
2017-08-21T02:49:45.035Z,89.60
2017-08-21T02:55:01.521Z,90.00
2017-08-21T03:00:17.873Z,90.70
2017-08-21T03:05:34.770Z,90.60
2017-08-21T03:10:51.202Z,91.40
2017-08-21T03:15:53.292Z,91.20
2017-08-21T03:20:57.480Z,89.40
2017-08-21T03:25:59.885Z,89.70
2017-08-21T03:31:02.171Z,90.10
2017-08-21T03:36:03.820Z,90.20
2017-08-21T03:41:05.516Z,90.60
2017-08-21T03:46:07.188Z,91.40
2017-08-21T03:51:08.862Z,90.50
2017-08-21T03:56:10.535Z,90.30
2017-08-21T04:01:12.823Z,88.10
2017-08-21T04:06:14.496Z,82.90
2017-08-21T04:11:16.724Z,85.70
2017-08-21T04:16:19.763Z,88.60
2017-08-21T04:21:21.561Z,90.00
2017-08-21T04:26:23.416Z,88.40
2017-08-21T04:31:25.111Z,88.40
2017-08-21T04:36:26.961Z,84.20
2017-08-21T04:41:28.662Z,87.40
2017-08-21T04:46:31.344Z,88.60
2017-08-21T04:51:33.014Z,87.00
2017-08-21T04:56:38.802Z,88.00
2017-08-21T05:01:40.473Z,88.30
2017-08-21T05:06:42.968Z,89.40
2017-08-21T05:11:44.640Z,89.00
2017-08-21T05:16:46.270Z,86.10
2017-08-21T05:21:47.983Z,84.90
2017-08-21T05:26:49.657Z,87.10
2017-08-21T05:31:52.495Z,86.30
2017-08-21T05:36:54.230Z,82.80
2017-08-21T05:41:55.877Z,81.30
2017-08-21T05:46:57.575Z,80.70
2017-08-21T05:51:59.229Z,83.80
2017-08-21T05:57:00.921Z,83.30
2017-08-21T06:02:02.553Z,81.70
2017-08-21T06:07:04.240Z,83.30
2017-08-21T06:12:06.421Z,83.60
2017-08-21T06:17:08.003Z,80.80
2017-08-21T06:22:10.965Z,81.00
2017-08-21T06:27:12.594Z,80.50
2017-08-21T06:32:14.881Z,76.80
2017-08-21T06:37:16.535Z,73.40
2017-08-21T06:42:18.206Z,75.30
2017-08-21T06:47:19.902Z,72.40
2017-08-21T06:52:21.573Z,73.80
2017-08-21T06:57:23.245Z,70.90
2017-08-21T07:02:25.738Z,72.50
2017-08-21T07:07:27.389Z,71.80
2017-08-21T07:12:29.057Z,71.00
2017-08-21T07:17:30.659Z,62.80
2017-08-21T07:22:32.432Z,62.10
2017-08-21T07:27:34.102Z,58.00
2017-08-21T07:32:36.241Z,56.50
2017-08-21T07:37:37.835Z,55.20
2017-08-21T07:42:39.510Z,53.50
2017-08-21T07:47:41.176Z,54.50
2017-08-21T07:52:43.444Z,53.00
2017-08-21T07:57:45.137Z,51.00
2017-08-21T08:02:47.242Z,49.40
2017-08-21T08:07:50.080Z,47.00
2017-08-21T08:12:52.298Z,48.60
2017-08-21T08:17:53.865Z,47.40
2017-08-21T08:22:55.545Z,48.30
2017-08-21T08:27:57.631Z,48.20
2017-08-21T08:32:59.328Z,47.70
2017-08-21T08:38:01.001Z,46.40
2017-08-21T08:43:03.287Z,46.00
2017-08-21T08:48:04.962Z,47.40
2017-08-21T08:53:07.321Z,45.80
2017-08-21T08:58:09.126Z,46.40
2017-08-21T09:03:10.680Z,46.40
2017-08-21T09:08:12.450Z,44.90
2017-08-21T09:13:14.144Z,45.20
2017-08-21T09:18:15.797Z,45.60
2017-08-21T09:23:17.489Z,44.70
2017-08-21T09:28:19.712Z,42.40
2017-08-21T09:33:21.449Z,44.80
2017-08-21T09:38:23.098Z,45.90
2017-08-21T09:43:25.353Z,43.20
2017-08-21T09:48:27.084Z,44.80
2017-08-21T09:53:28.754Z,40.10
2017-08-21T09:58:31.687Z,44.50
2017-08-21T10:03:33.408Z,43.80
2017-08-21T10:08:35.104Z,42.30
2017-08-21T10:13:37.301Z,40.80
2017-08-21T10:19:15.569Z,43.50
2017-08-21T10:24:17.145Z,43.80
2017-08-21T10:29:18.716Z,44.00
2017-08-21T10:34:20.276Z,40.00
2017-08-21T10:39:21.865Z,42.70
2017-08-21T10:44:23.441Z,41.20
2017-08-21T10:49:25.053Z,42.40
2017-08-21T10:54:26.620Z,42.10
2017-08-21T10:59:28.173Z,41.20
2017-08-21T11:04:29.801Z,39.00
2017-08-21T11:09:31.415Z,40.60
2017-08-21T11:14:32.967Z,38.70
2017-08-21T11:19:34.533Z,40.20
2017-08-21T11:24:36.085Z,39.50
2017-08-21T11:29:37.640Z,38.80
2017-08-21T11:34:39.144Z,39.90
2017-08-21T11:39:40.736Z,40.70
2017-08-21T11:44:42.315Z,41.30
2017-08-21T11:49:43.812Z,41.30
2017-08-21T11:54:45.363Z,38.80
2017-08-21T11:59:48.051Z,43.10
2017-08-21T12:04:50.425Z,41.00
2017-08-21T12:09:52.830Z,40.30
2017-08-21T12:14:55.819Z,39.50
2017-08-21T12:19:57.609Z,42.90
2017-08-21T12:24:59.281Z,39.60
2017-08-21T12:30:00.966Z,41.80
2017-08-21T12:35:02.606Z,38.90
2017-08-21T12:40:04.301Z,39.10
2017-08-21T12:45:05.954Z,39.10
2017-08-21T12:50:07.626Z,40.70
2017-08-21T12:55:09.194Z,40.50
2017-08-21T13:00:10.764Z,39.40
2017-08-21T13:05:12.435Z,38.30
2017-08-21T13:10:14.115Z,39.80
2017-08-21T13:15:15.781Z,37.60
2017-08-21T13:20:18.613Z,39.60
2017-08-21T13:25:20.588Z,39.70
2017-08-21T13:30:22.154Z,40.80
2017-08-21T13:35:23.726Z,38.50
2017-08-21T13:40:25.477Z,40.50
2017-08-21T13:45:27.173Z,38.20
2017-08-21T13:50:28.845Z,40.40
2017-08-21T13:55:30.518Z,40.00
2017-08-21T14:00:32.637Z,40.40
2017-08-21T14:05:34.273Z,39.50
2017-08-21T14:10:36.513Z,42.00
2017-08-21T14:15:38.065Z,42.30
2017-08-21T14:20:39.700Z,39.00
2017-08-21T14:25:41.466Z,40.30
2017-08-21T14:30:43.739Z,39.00
2017-08-21T14:35:46.050Z,40.50
2017-08-21T14:40:48.389Z,38.80
2017-08-21T14:45:50.932Z,42.60
2017-08-21T14:50:52.585Z,40.90
2017-08-21T14:55:54.283Z,41.30
2017-08-21T15:00:55.951Z,40.30
2017-08-21T15:05:57.602Z,42.00
2017-08-21T15:11:00.342Z,39.10
2017-08-21T15:16:02.074Z,39.70
2017-08-21T15:21:05.757Z,39.80
2017-08-21T15:26:07.460Z,40.70
2017-08-21T15:31:09.140Z,39.60
2017-08-21T15:36:10.833Z,40.80
2017-08-21T15:41:12.506Z,39.60
2017-08-21T15:46:14.182Z,38.90
2017-08-21T15:51:15.832Z,40.20
2017-08-21T15:56:18.986Z,41.90
2017-08-21T16:01:20.556Z,40.80
2017-08-21T16:06:23.257Z,41.10
2017-08-21T16:11:25.575Z,40.30
2017-08-21T16:16:27.466Z,40.70
2017-08-21T16:21:29.137Z,39.80
2017-08-21T16:26:31.363Z,39.20
2017-08-21T16:31:33.126Z,39.70
2017-08-21T16:36:34.981Z,40.00
2017-08-21T16:41:36.696Z,40.40
2017-08-21T16:46:38.834Z,39.00
2017-08-21T16:51:40.541Z,39.70
2017-08-21T16:56:42.392Z,41.00
2017-08-21T17:01:44.060Z,41.10
2017-08-21T17:06:45.741Z,39.90
2017-08-21T17:11:47.430Z,40.00
2017-08-21T17:16:49.285Z,40.20
2017-08-21T17:21:51.582Z,41.10
2017-08-21T17:26:53.269Z,40.90
2017-08-21T17:31:54.941Z,40.80
2017-08-21T17:36:56.613Z,43.80
2017-08-21T17:41:58.288Z,42.50
2017-08-21T17:46:59.937Z,43.70
2017-08-21T17:52:01.614Z,43.90
2017-08-21T17:57:03.304Z,43.30
2017-08-21T18:02:04.977Z,43.40
2017-08-21T18:07:07.413Z,47.10
2017-08-21T18:12:09.142Z,50.20
2017-08-21T18:17:10.815Z,52.10
2017-08-21T18:22:12.487Z,52.60
2017-08-21T18:27:14.366Z,55.50
2017-08-21T18:32:17.064Z,56.70
2017-08-21T18:37:19.488Z,57.40
2017-08-21T18:42:21.676Z,57.20
2017-08-21T18:47:24.540Z,57.10
2017-08-21T18:52:26.315Z,57.50
2017-08-21T18:57:28.193Z,58.10
2017-08-21T19:02:29.865Z,59.30
2017-08-21T19:07:32.532Z,59.00
2017-08-21T19:12:34.230Z,59.40
2017-08-21T19:17:35.904Z,59.20
2017-08-21T19:22:38.509Z,59.30
2017-08-21T19:27:41.407Z,59.90
2017-08-21T19:32:43.909Z,60.00
2017-08-21T19:37:46.595Z,60.50
2017-08-21T19:42:50.285Z,60.70
2017-08-21T19:47:51.982Z,60.60
2017-08-21T19:52:53.654Z,61.10
2017-08-21T19:57:55.290Z,61.00
2017-08-21T20:02:57.001Z,60.40
2017-08-21T20:07:58.632Z,60.20
2017-08-21T20:13:01.021Z,60.30
2017-08-21T20:18:03.371Z,60.40
2017-08-21T20:23:07.178Z,60.60
2017-08-21T20:28:09.051Z,60.80
2017-08-21T20:33:11.630Z,61.20
2017-08-21T20:38:14.418Z,60.90
2017-08-21T20:43:16.117Z,60.60
2017-08-21T20:48:17.977Z,60.30
2017-08-21T20:53:19.669Z,60.20
2017-08-21T20:58:21.752Z,60.00
2017-08-21T21:03:23.628Z,60.50
2017-08-21T21:08:25.254Z,60.20
2017-08-21T21:13:27.152Z,59.90
2017-08-21T21:18:29.395Z,60.10
2017-08-21T21:23:31.123Z,60.10
2017-08-21T21:28:32.811Z,60.40
2017-08-21T21:33:38.579Z,60.50
2017-08-21T21:38:40.459Z,60.70
2017-08-21T21:43:43.073Z,60.60
2017-08-21T21:48:44.809Z,60.80
2017-08-21T21:53:47.529Z,61.20
2017-08-21T21:58:50.199Z,62.00
2017-08-21T22:03:51.875Z,61.60
2017-08-21T22:08:53.569Z,62.20
2017-08-21T22:13:55.241Z,62.70
2017-08-21T22:18:56.910Z,63.00
2017-08-21T22:23:58.582Z,62.90
2017-08-21T22:29:01.468Z,62.70
2017-08-21T22:34:03.133Z,62.30
2017-08-21T22:39:06.878Z,62.20
2017-08-21T22:44:08.554Z,62.50
2017-08-21T22:49:11.715Z,62.80
2017-08-21T22:54:13.491Z,63.70
2017-08-21T22:59:15.760Z,69.20
2017-08-21T23:04:17.474Z,73.00
2017-08-21T23:09:19.166Z,73.30
2017-08-21T23:14:20.797Z,74.00
2017-08-21T23:19:23.519Z,74.90
2017-08-21T23:24:26.138Z,75.10
2017-08-21T23:29:27.881Z,75.50
2017-08-21T23:34:29.578Z,75.60
2017-08-21T23:39:31.252Z,76.60
2017-08-21T23:44:32.821Z,76.30
2017-08-21T23:49:35.207Z,76.60
2017-08-21T23:54:37.908Z,77.30
2017-08-21T23:59:40.158Z,76.60
